Time;durP1;ratioP1;P1;durP2;ratioP2;P2;SDS_P1;SDS_P2;PMS_P1;PMS_P2;Temp;Humidity;BMP_temperature;BMP_pressure;BME280_temperature;BME280_humidity;BME280_pressure;Samples;Min_cycle;Max_cycle;Signal;HPM_P1;HPM_P2
2021/12/07 00:00:32;;;;;;;;;;;2.80;99.90;;;;;;4960066;28;19926;-91
2021/12/07 00:02:57;;;;;;;;;;;2.80;99.90;;;;;;4960592;28;19949;-90
2021/12/07 00:05:23;;;;;;;;;;;2.80;99.90;;;;;;4976422;28;19949;-90
2021/12/07 00:07:48;;;;;;;;;;;2.80;99.90;;;;;;4944736;28;19933;-91
2021/12/07 00:10:14;;;;;;;;;;;2.70;99.90;;;;;;4943896;28;19926;-90
2021/12/07 00:12:42;;;;;;;;;;;2.70;99.90;;;;;;4959787;28;19926;-91
2021/12/07 00:15:08;;;;;;;;;;;2.70;99.90;;;;;;4960572;28;19926;-91
2021/12/07 00:17:33;;;;;;;;;;;2.70;99.90;;;;;;4943863;28;19926;-90
2021/12/07 00:19:59;;;;;;;;;;;2.70;99.90;;;;;;4960545;28;19926;-91
2021/12/07 00:22:25;;;;;;;;;;;2.60;99.90;;;;;;4944060;28;20387;-90
2021/12/07 00:24:50;;;;;;;;;;;2.50;99.90;;;;;;4944484;28;19926;-90
2021/12/07 00:27:16;;;;;;;;;;;2.50;99.90;;;;;;4944145;28;20264;-90
2021/12/07 00:29:41;;;;;;;;;;;2.40;99.90;;;;;;4943680;29;20260;-90
2021/12/07 00:37:26;;;;;;;;;;;2.40;99.90;;;;;;4956685;29;19978;-92
2021/12/07 00:39:52;;;;;;;;;;;2.30;99.90;;;;;;4956589;29;20010;-89
2021/12/07 00:42:18;;;;;;;;;;;2.30;99.90;;;;;;4956773;29;20287;-91
2021/12/07 00:44:43;;;;;;;;;;;2.20;99.90;;;;;;4941361;28;19926;-90
2021/12/07 00:47:09;;;;;;;;;;;2.20;99.90;;;;;;4956637;29;20029;-90
2021/12/07 00:49:35;;;;;;;;;;;2.20;99.90;;;;;;4973703;28;19926;-90
2021/12/07 00:52:00;;;;;;;;;;;2.10;99.90;;;;;;4960026;28;19926;-91
2021/12/07 00:54:26;;;;;;;;;;;2.10;99.90;;;;;;4975829;28;19926;-92
2021/12/07 00:56:51;;;;;;;;;;;2.10;99.90;;;;;;4959819;28;19968;-90
2021/12/07 00:59:17;;;;;;;;;;;2.20;99.90;;;;;;4943484;28;19926;-90
2021/12/07 01:01:42;;;;;;;;;;;2.10;99.90;;;;;;4974604;28;19986;-90
2021/12/07 01:04:08;;;;;;;;;;;2.10;99.90;;;;;;4943760;28;20291;-90
2021/12/07 01:06:46;;;;;;;;;;;2.10;99.90;;;;;;4959096;28;20264;-91
2021/12/07 01:09:22;;;;;;;;;;;2.00;99.90;;;;;;4961575;28;19926;-90
2021/12/07 01:25:35;;;;;;;;;;;2.00;99.90;;;;;;4961349;28;19933;-90
2021/12/07 01:28:08;;;;;;;;;;;1.90;99.90;;;;;;4943793;28;20021;-90
2021/12/07 01:30:49;;;;;;;;;;;2.00;99.90;;;;;;4943604;28;19926;-90
2021/12/07 01:36:11;;;;;;;;;;;2.00;99.90;;;;;;4974742;28;19933;-90
2021/12/07 01:41:14;;;;;;;;;;;2.00;99.90;;;;;;4974735;28;19976;-89
2021/12/07 01:50:02;;;;;;;;;;;2.10;99.90;;;;;;4961124;28;19981;-89
2021/12/07 01:59:53;;;;;;;;;;;2.00;99.90;;;;;;4955472;29;19932;-89
2021/12/07 02:02:20;;;;;;;;;;;2.00;99.90;;;;;;4971036;28;20009;-89
2021/12/07 02:04:45;;;;;;;;;;;2.00;99.90;;;;;;4938846;29;19927;-90
2021/12/07 02:07:11;;;;;;;;;;;1.90;99.90;;;;;;4955434;29;19927;-90
2021/12/07 02:09:38;;;;;;;;;;;1.90;99.90;;;;;;4938689;28;19926;-88
2021/12/07 02:12:06;;;;;;;;;;;2.00;99.90;;;;;;4972899;28;19926;-89
2021/12/07 02:14:31;;;;;;;;;;;2.00;99.90;;;;;;4957784;28;19977;-89
2021/12/07 02:17:02;;;;;;;;;;;2.00;99.90;;;;;;4942284;28;19926;-90
2021/12/07 02:19:28;;;;;;;;;;;2.00;99.90;;;;;;4957608;28;19932;-90
2021/12/07 02:21:54;;;;;;;;;;;2.10;99.90;;;;;;4958259;28;20414;-90
2021/12/07 02:24:19;;;;;;;;;;;2.10;99.90;;;;;;4958163;28;20014;-90
2021/12/07 02:26:47;;;;;;;;;;;2.10;99.90;;;;;;4940790;28;19989;-90
2021/12/07 02:29:13;;;;;;;;;;;2.10;99.90;;;;;;4958246;28;19930;-89
2021/12/07 02:31:38;;;;;;;;;;;2.00;99.90;;;;;;4957529;28;19926;-90
2021/12/07 02:34:04;;;;;;;;;;;2.00;99.90;;;;;;4990158;28;19933;-90
2021/12/07 02:36:32;;;;;;;;;;;2.10;99.90;;;;;;4941052;28;19933;-89
2021/12/07 02:38:58;;;;;;;;;;;2.10;99.90;;;;;;4973845;28;20073;-89
2021/12/07 02:41:26;;;;;;;;;;;2.20;99.90;;;;;;4957385;28;20415;-89
2021/12/07 02:43:51;;;;;;;;;;;2.20;99.90;;;;;;4956561;28;19926;-90
2021/12/07 02:46:17;;;;;;;;;;;2.20;99.90;;;;;;4957750;28;19933;-90
2021/12/07 02:48:43;;;;;;;;;;;2.30;99.90;;;;;;4973322;28;20032;-89
2021/12/07 02:51:09;;;;;;;;;;;2.20;99.90;;;;;;4957370;28;19933;-90
2021/12/07 02:53:35;;;;;;;;;;;2.20;99.90;;;;;;4957237;28;19926;-89
2021/12/07 02:56:00;;;;;;;;;;;2.20;99.90;;;;;;4957546;28;19930;-89
2021/12/07 02:58:26;;;;;;;;;;;2.30;99.90;;;;;;4941477;28;19937;-89
2021/12/07 03:01:17;;;;;;;;;;;2.20;99.90;;;;;;4955493;28;20367;-89
2021/12/07 03:03:42;;;;;;;;;;;2.20;99.90;;;;;;4952629;28;19933;-89
2021/12/07 03:06:22;;;;;;;;;;;2.20;99.90;;;;;;4954410;29;19994;-90
2021/12/07 03:27:54;;;;;;;;;;;1.90;99.90;;;;;;4971481;28;19962;-90
2021/12/07 03:30:20;;;;;;;;;;;2.00;99.90;;;;;;4973977;28;19926;-90
2021/12/07 03:32:45;;;;;;;;;;;1.90;99.90;;;;;;4957767;28;19977;-90
2021/12/07 03:35:11;;;;;;;;;;;1.90;99.90;;;;;;4974125;28;20330;-91
2021/12/07 03:37:36;;;;;;;;;;;1.90;99.90;;;;;;4957502;28;20296;-89
2021/12/07 03:40:02;;;;;;;;;;;1.80;99.90;;;;;;4957397;29;19930;-89
2021/12/07 03:42:28;;;;;;;;;;;1.80;99.90;;;;;;4957883;29;20021;-90
2021/12/07 03:44:53;;;;;;;;;;;1.70;99.90;;;;;;4941395;29;20002;-90
2021/12/07 03:47:19;;;;;;;;;;;1.80;99.90;;;;;;4957776;28;19926;-89
2021/12/07 03:49:44;;;;;;;;;;;1.70;99.90;;;;;;4976018;28;19980;-90
2021/12/07 03:52:10;;;;;;;;;;;1.60;99.90;;;;;;4944839;28;20020;-90
2021/12/07 03:54:35;;;;;;;;;;;1.60;99.90;;;;;;4976908;28;19926;-89
2021/12/07 03:57:01;;;;;;;;;;;1.60;99.90;;;;;;4976472;28;19926;-90
2021/12/07 03:59:26;;;;;;;;;;;1.60;99.90;;;;;;4976615;28;20401;-90
2021/12/07 04:01:52;;;;;;;;;;;1.60;99.90;;;;;;4976317;28;19936;-90
2021/12/07 04:04:18;;;;;;;;;;;1.60;99.90;;;;;;4960525;28;19984;-90
2021/12/07 04:06:44;;;;;;;;;;;1.60;99.90;;;;;;4976272;28;19926;-90
2021/12/07 04:09:09;;;;;;;;;;;1.60;99.90;;;;;;4972899;28;19980;-90
2021/12/07 04:11:35;;;;;;;;;;;1.60;99.90;;;;;;4940779;29;20319;-89
2021/12/07 04:14:00;;;;;;;;;;;1.60;99.90;;;;;;4956929;29;20338;-89
2021/12/07 04:16:26;;;;;;;;;;;1.60;99.90;;;;;;4957145;29;19950;-89
2021/12/07 04:18:51;;;;;;;;;;;1.60;99.90;;;;;;4956796;29;19930;-89
2021/12/07 04:21:17;;;;;;;;;;;1.60;99.90;;;;;;4941019;29;19927;-89
2021/12/07 04:23:43;;;;;;;;;;;1.60;99.90;;;;;;4940677;29;20334;-90
2021/12/07 04:26:11;;;;;;;;;;;1.60;99.90;;;;;;4941613;29;19933;-89
2021/12/07 04:28:37;;;;;;;;;;;1.60;99.90;;;;;;4972836;28;20338;-90
2021/12/07 04:31:03;;;;;;;;;;;1.60;99.90;;;;;;4988600;28;20078;-89
2021/12/07 04:33:29;;;;;;;;;;;1.50;99.90;;;;;;4956920;29;20382;-90
2021/12/07 04:35:57;;;;;;;;;;;1.50;99.90;;;;;;4955424;28;20028;-90
2021/12/07 04:38:23;;;;;;;;;;;1.60;99.90;;;;;;4973010;28;19986;-89
2021/12/07 04:40:48;;;;;;;;;;;1.60;99.90;;;;;;4955926;28;19927;-90
2021/12/07 04:43:14;;;;;;;;;;;1.50;99.90;;;;;;4955308;29;19933;-90
2021/12/07 04:58:50;;;;;;;;;;;1.60;99.90;;;;;;4961613;28;19981;-90
2021/12/07 05:01:19;;;;;;;;;;;1.50;99.90;;;;;;4959659;28;19933;-89
2021/12/07 05:03:45;;;;;;;;;;;1.50;99.90;;;;;;4959435;28;19926;-89
2021/12/07 05:06:12;;;;;;;;;;;1.50;99.90;;;;;;4975668;28;19930;-90
2021/12/07 05:11:29;;;;;;;;;;;1.60;99.90;;;;;;4974978;28;20020;-90
2021/12/07 05:14:10;;;;;;;;;;;1.50;99.90;;;;;;4973959;28;20350;-90
2021/12/07 05:23:55;;;;;;;;;;;1.40;99.90;;;;;;4955716;28;20081;-90
2021/12/07 05:25:07;;;;;;;;;;;1.40;99.90;;;;;;4956062;29;19982;-90
2021/12/07 05:38:32;;;;;;;;;;;1.30;99.90;;;;;;4969467;28;20377;-90
2021/12/07 05:40:57;;;;;;;;;;;1.40;99.90;;;;;;4971193;28;19931;-90
2021/12/07 05:43:25;;;;;;;;;;;1.40;99.90;;;;;;4956187;29;20279;-91
2021/12/07 05:45:51;;;;;;;;;;;1.50;99.90;;;;;;4955188;28;19974;-89
2021/12/07 05:48:17;;;;;;;;;;;1.70;99.90;;;;;;4990452;28;20294;-89
2021/12/07 05:50:43;;;;;;;;;;;1.70;99.90;;;;;;4973825;28;19927;-89
2021/12/07 05:53:09;;;;;;;;;;;1.80;99.90;;;;;;4955040;29;19935;-91
2021/12/07 05:55:36;;;;;;;;;;;1.80;99.90;;;;;;4954921;29;20591;-90
2021/12/07 05:58:02;;;;;;;;;;;1.90;99.90;;;;;;4962804;28;19934;-90
2021/12/07 06:00:29;;;;;;;;;;;2.00;99.90;;;;;;4958680;28;19934;-89
2021/12/07 06:02:59;;;;;;;;;;;1.90;99.90;;;;;;4942422;28;19926;-90
2021/12/07 06:05:24;;;;;;;;;;;2.00;99.90;;;;;;4942887;28;20434;-91
2021/12/07 06:07:50;;;;;;;;;;;2.00;99.90;;;;;;4957160;28;19984;-88
2021/12/07 06:10:16;;;;;;;;;;;2.10;99.90;;;;;;4953994;29;19980;-89
2021/12/07 06:12:41;;;;;;;;;;;2.00;99.90;;;;;;4954498;29;20383;-89
2021/12/07 06:15:07;;;;;;;;;;;2.00;99.90;;;;;;4938265;29;20387;-88
2021/12/07 06:17:33;;;;;;;;;;;2.10;99.90;;;;;;4963429;28;20294;-88
2021/12/07 06:20:01;;;;;;;;;;;1.90;99.90;;;;;;4973837;28;19926;-89
2021/12/07 06:22:26;;;;;;;;;;;2.00;99.90;;;;;;4958080;28;19930;-88
2021/12/07 06:24:52;;;;;;;;;;;2.00;99.90;;;;;;4940253;28;20015;-88
2021/12/07 06:27:18;;;;;;;;;;;1.90;99.90;;;;;;4938503;29;20388;-88
2021/12/07 06:29:43;;;;;;;;;;;2.00;99.90;;;;;;4954634;29;19926;-88
2021/12/07 06:32:09;;;;;;;;;;;1.90;99.90;;;;;;4938342;29;20069;-88
2021/12/07 06:34:35;;;;;;;;;;;1.90;99.90;;;;;;4938762;29;19949;-88
2021/12/07 06:37:00;;;;;;;;;;;1.90;99.90;;;;;;4973038;28;20410;-89
2021/12/07 06:39:26;;;;;;;;;;;1.90;99.90;;;;;;4944306;28;20341;-88
2021/12/07 06:41:52;;;;;;;;;;;1.80;99.90;;;;;;4959173;28;19980;-89
2021/12/07 06:44:17;;;;;;;;;;;1.90;99.90;;;;;;4957420;28;20355;-88
2021/12/07 06:46:44;;;;;;;;;;;1.90;99.90;;;;;;4957562;28;19926;-88
2021/12/07 06:49:09;;;;;;;;;;;2.00;99.90;;;;;;4982311;28;19929;-87
2021/12/07 06:51:35;;;;;;;;;;;1.90;99.90;;;;;;4976761;28;20396;-87
2021/12/07 06:54:00;;;;;;;;;;;1.90;99.90;;;;;;4960645;28;19925;-89
2021/12/07 06:56:28;;;;;;;;;;;1.80;99.90;;;;;;4993256;28;19926;-86
2021/12/07 06:58:56;;;;;;;;;;;1.80;99.90;;;;;;4974661;28;19937;-86
2021/12/07 07:01:22;;;;;;;;;;;1.70;99.90;;;;;;4979799;28;19930;-87
2021/12/07 07:03:50;;;;;;;;;;;1.80;99.90;;;;;;4960311;28;19925;-87
2021/12/07 07:06:15;;;;;;;;;;;1.70;99.90;;;;;;4960496;28;19925;-86
2021/12/07 07:08:41;;;;;;;;;;;1.70;99.90;;;;;;4944623;28;19926;-86
2021/12/07 07:11:07;;;;;;;;;;;1.70;99.90;;;;;;4976202;28;20355;-86
2021/12/07 07:13:32;;;;;;;;;;;1.60;99.90;;;;;;4960673;28;20064;-87
2021/12/07 07:15:58;;;;;;;;;;;1.60;99.90;;;;;;4958211;28;19937;-87
2021/12/07 07:18:23;;;;;;;;;;;1.50;99.90;;;;;;4941638;28;19937;-87
2021/12/07 07:20:49;;;;;;;;;;;1.50;99.90;;;;;;4960603;28;20008;-87
2021/12/07 07:23:15;;;;;;;;;;;1.40;99.90;;;;;;4976173;28;19932;-87
2021/12/07 07:25:40;;;;;;;;;;;1.30;99.90;;;;;;4976607;28;19933;-86
2021/12/07 07:28:06;;;;;;;;;;;1.40;99.90;;;;;;4976313;28;19926;-87
2021/12/07 07:30:31;;;;;;;;;;;1.30;99.90;;;;;;4960355;28;20012;-87
2021/12/07 07:32:57;;;;;;;;;;;1.40;99.90;;;;;;4958203;28;19926;-86
2021/12/07 07:35:22;;;;;;;;;;;1.40;99.90;;;;;;4956845;28;19926;-87
2021/12/07 07:37:48;;;;;;;;;;;1.30;99.90;;;;;;4957328;28;19930;-86
2021/12/07 07:40:15;;;;;;;;;;;1.40;99.90;;;;;;4972132;28;19926;-87
2021/12/07 07:42:41;;;;;;;;;;;1.50;99.90;;;;;;4956927;28;20020;-86
2021/12/07 07:45:06;;;;;;;;;;;1.30;99.90;;;;;;4957254;28;20421;-89
2021/12/07 07:47:32;;;;;;;;;;;1.40;99.90;;;;;;4943827;28;19937;-87
2021/12/07 07:49:57;;;;;;;;;;;1.30;99.90;;;;;;4973745;28;19933;-87
2021/12/07 07:52:23;;;;;;;;;;;1.30;99.90;;;;;;4972784;28;19930;-86
2021/12/07 07:54:48;;;;;;;;;;;1.20;99.90;;;;;;4973183;28;20378;-87
2021/12/07 07:57:14;;;;;;;;;;;1.10;99.90;;;;;;4966982;28;20290;-87
2021/12/07 07:59:40;;;;;;;;;;;1.20;99.90;;;;;;4944335;28;19926;-86
2021/12/07 08:02:06;;;;;;;;;;;1.20;99.90;;;;;;4976208;28;19926;-87
2021/12/07 08:04:31;;;;;;;;;;;1.20;99.90;;;;;;4959119;28;19925;-87
2021/12/07 08:06:57;;;;;;;;;;;1.30;99.90;;;;;;4974310;28;19929;-89
2021/12/07 08:09:22;;;;;;;;;;;1.30;99.90;;;;;;4956798;28;20060;-89
2021/12/07 08:11:48;;;;;;;;;;;1.40;99.90;;;;;;4960112;28;19933;-89
2021/12/07 08:14:15;;;;;;;;;;;1.40;99.90;;;;;;4961229;28;20393;-89
2021/12/07 08:16:41;;;;;;;;;;;1.40;99.90;;;;;;4970085;28;19933;-89
2021/12/07 08:19:06;;;;;;;;;;;1.30;99.90;;;;;;4969416;28;19925;-89
2021/12/07 08:21:32;;;;;;;;;;;1.20;99.90;;;;;;4982577;28;20023;-89
2021/12/07 08:23:57;;;;;;;;;;;1.10;99.90;;;;;;4982661;28;19929;-89
2021/12/07 08:26:23;;;;;;;;;;;1.20;99.90;;;;;;4982486;28;19953;-89
2021/12/07 08:28:50;;;;;;;;;;;1.10;99.90;;;;;;4982456;28;20370;-88
2021/12/07 08:31:15;;;;;;;;;;;1.10;99.90;;;;;;4976552;28;19995;-89
2021/12/07 08:33:41;;;;;;;;;;;1.20;99.90;;;;;;4963815;28;19926;-88
2021/12/07 08:36:09;;;;;;;;;;;1.10;99.90;;;;;;4963027;28;19980;-87
2021/12/07 08:38:37;;;;;;;;;;;1.10;99.90;;;;;;4946976;28;19937;-87
2021/12/07 08:41:03;;;;;;;;;;;1.20;99.90;;;;;;4962372;28;20010;-89
2021/12/07 08:43:29;;;;;;;;;;;1.00;99.90;;;;;;4962750;28;19976;-88
2021/12/07 08:45:55;;;;;;;;;;;1.10;99.90;;;;;;4962938;28;20352;-88
2021/12/07 08:48:20;;;;;;;;;;;1.00;99.90;;;;;;4978922;28;20310;-88
2021/12/07 08:50:46;;;;;;;;;;;1.10;99.90;;;;;;4974376;28;19932;-88
2021/12/07 08:53:13;;;;;;;;;;;1.10;99.90;;;;;;4958841;28;19973;-87
2021/12/07 09:01:08;;;;;;;;;;;1.20;99.90;;;;;;4984339;28;20024;-88
2021/12/07 09:03:33;;;;;;;;;;;1.20;99.90;;;;;;4973473;28;19973;-89
2021/12/07 09:05:59;;;;;;;;;;;1.20;99.90;;;;;;4953233;28;19926;-89
2021/12/07 09:08:24;;;;;;;;;;;1.30;99.90;;;;;;4971436;28;19934;-89
2021/12/07 09:10:50;;;;;;;;;;;1.40;99.90;;;;;;4965399;28;20396;-89
2021/12/07 09:13:16;;;;;;;;;;;1.50;99.90;;;;;;4958869;28;20329;-88
2021/12/07 09:15:44;;;;;;;;;;;1.30;99.90;;;;;;4976078;28;19937;-90
2021/12/07 09:18:09;;;;;;;;;;;1.40;99.90;;;;;;4951566;28;19996;-89
2021/12/07 09:20:35;;;;;;;;;;;1.40;99.90;;;;;;4949427;28;20016;-91
2021/12/07 09:23:06;;;;;;;;;;;1.50;99.90;;;;;;4950211;28;19933;-90
2021/12/07 09:25:32;;;;;;;;;;;1.70;99.90;;;;;;4978598;28;19922;-93
2021/12/07 09:28:00;;;;;;;;;;;1.60;99.90;;;;;;4967278;28;19929;-91
2021/12/07 09:30:28;;;;;;;;;;;1.70;99.90;;;;;;4955399;28;19921;-90
2021/12/07 09:32:54;;;;;;;;;;;1.90;99.90;;;;;;4951502;28;19926;-91
2021/12/07 09:35:21;;;;;;;;;;;2.00;99.90;;;;;;4935838;28;19933;-93
2021/12/07 09:37:47;;;;;;;;;;;2.10;99.90;;;;;;4973949;28;20020;-95
2021/12/07 09:40:14;;;;;;;;;;;2.10;99.90;;;;;;4962030;28;19934;-95
2021/12/07 09:42:40;;;;;;;;;;;2.20;99.90;;;;;;4956630;28;19926;-92
2021/12/07 09:45:06;;;;;;;;;;;2.30;99.90;;;;;;4956700;28;20292;-92
2021/12/07 09:47:32;;;;;;;;;;;2.40;99.90;;;;;;4997762;28;19991;-92
2021/12/07 09:49:57;;;;;;;;;;;2.40;99.90;;;;;;4948426;28;20341;-93
2021/12/07 09:52:24;;;;;;;;;;;2.50;99.90;;;;;;4956988;28;19921;-91
2021/12/07 09:54:50;;;;;;;;;;;2.60;99.90;;;;;;4942213;28;19977;-91
2021/12/07 09:57:16;;;;;;;;;;;2.50;99.90;;;;;;4950959;28;20298;-92
2021/12/07 09:59:41;;;;;;;;;;;2.60;99.90;;;;;;4950479;28;19929;-91
2021/12/07 10:02:07;;;;;;;;;;;2.70;99.90;;;;;;4935278;28;20401;-91
2021/12/07 10:04:35;;;;;;;;;;;2.80;99.90;;;;;;4951326;28;19922;-92
2021/12/07 10:07:03;;;;;;;;;;;2.80;99.90;;;;;;4936480;28;19929;-91
2021/12/07 10:09:29;;;;;;;;;;;2.90;99.90;;;;;;4965989;28;19926;-91
2021/12/07 10:11:54;;;;;;;;;;;2.80;99.90;;;;;;4956094;28;20302;-91
2021/12/07 10:14:48;;;;;;;;;;;;;;;;;;;;;
2021/12/07 10:17:14;;;;;;;;;;;3.00;99.90;;;;;;4990615;28;19925;-93
2021/12/07 10:19:45;;;;;;;;;;;3.00;99.90;;;;;;4961891;28;19933;-92
2021/12/07 10:22:21;;;;;;;;;;;3.00;99.90;;;;;;4962123;28;19926;-92
2021/12/07 10:24:54;;;;;;;;;;;3.10;99.90;;;;;;4939216;28;20719;-91
2021/12/07 10:27:35;;;;;;;;;;;3.00;99.90;;;;;;4979580;28;19926;-92
2021/12/07 10:30:03;;;;;;;;;;;3.10;99.90;;;;;;4968276;28;19929;-92
2021/12/07 10:32:29;;;;;;;;;;;3.10;99.90;;;;;;4980321;28;20012;-91
2021/12/07 10:35:08;;;;;;;;;;;3.30;99.90;;;;;;4951323;28;19996;-91
2021/12/07 10:37:53;;;;;;;;;;;3.30;99.90;;;;;;4962391;28;20380;-91
2021/12/07 10:40:27;;;;;;;;;;;3.30;99.90;;;;;;4947753;28;19938;-91
2021/12/07 10:42:55;;;;;;;;;;;3.20;99.90;;;;;;4932567;28;19926;-93
2021/12/07 10:45:28;;;;;;;;;;;3.30;99.90;;;;;;4937009;29;19957;-90
2021/12/07 10:47:59;;;;;;;;;;;3.40;99.90;;;;;;4972116;28;19926;-90
2021/12/07 10:50:24;;;;;;;;;;;3.40;99.90;;;;;;4944631;29;19978;-90
2021/12/07 10:52:52;;;;;;;;;;;3.40;99.90;;;;;;4967373;28;19926;-90
2021/12/07 10:55:29;;;;;;;;;;;;;;;;;;;;;
2021/12/07 10:58:04;;;;;;;;;;;3.60;99.90;;;;;;4970208;28;19927;-90
2021/12/07 11:00:32;;;;;;;;;;;3.60;99.90;;;;;;4989160;28;19984;-89
2021/12/07 11:03:01;;;;;;;;;;;3.60;99.90;;;;;;4957510;28;20290;-90
2021/12/07 11:05:35;;;;;;;;;;;3.60;99.90;;;;;;4957454;28;20294;-90
2021/12/07 11:08:05;;;;;;;;;;;3.70;99.90;;;;;;4969178;28;19930;-90
2021/12/07 11:10:38;;;;;;;;;;;3.70;99.90;;;;;;4939452;29;19926;-90
2021/12/07 11:13:22;;;;;;;;;;;3.80;99.90;;;;;;4954051;28;20361;-92
2021/12/07 11:16:11;;;;;;;;;;;3.80;99.90;;;;;;4942714;29;20367;-90
2021/12/07 11:18:51;;;;;;;;;;;;;;;;;;;;;
2021/12/07 11:21:27;;;;;;;;;;;;;;;;;;;;;
2021/12/07 11:24:08;;;;;;;;;;;4.10;99.90;;;;;;4954376;28;19926;-90
2021/12/07 11:29:42;;;;;;;;;;;4.10;99.90;;;;;;4979706;28;19925;-91
2021/12/07 11:32:15;;;;;;;;;;;4.30;99.90;;;;;;4978674;28;19925;-91
2021/12/07 11:34:44;;;;;;;;;;;4.30;99.90;;;;;;4976734;28;19926;-91
2021/12/07 11:37:25;;;;;;;;;;;4.30;99.90;;;;;;4977370;28;19933;-91
2021/12/07 11:42:50;;;;;;;;;;;4.40;99.90;;;;;;4973860;28;20370;-92
2021/12/07 11:45:36;;;;;;;;;;;;;;;;;;;;;
2021/12/07 11:48:12;;;;;;;;;;;4.50;99.90;;;;;;4981856;28;20354;-91
2021/12/07 11:50:40;;;;;;;;;;;4.50;99.90;;;;;;4980584;28;19926;-90
2021/12/07 11:53:23;;;;;;;;;;;;;;;;;;;;;
2021/12/07 11:55:58;;;;;;;;;;;4.60;99.90;;;;;;4981688;28;19926;-92
2021/12/07 11:58:27;;;;;;;;;;;4.60;99.90;;;;;;4965992;28;20358;-92
2021/12/07 12:01:05;;;;;;;;;;;;;;;;;;;;;
2021/12/07 12:03:34;;;;;;;;;;;4.70;99.90;;;;;;4982209;28;20028;-92
2021/12/07 12:06:02;;;;;;;;;;;4.70;99.90;;;;;;4980348;28;20012;-92
2021/12/07 12:08:30;;;;;;;;;;;4.80;99.90;;;;;;4980878;28;19941;-93
2021/12/07 12:11:01;;;;;;;;;;;4.80;99.90;;;;;;4980435;28;19926;-92
2021/12/07 12:13:57;;;;;;;;;;;4.80;99.90;;;;;;4980822;28;20024;-93
2021/12/07 12:16:40;;;;;;;;;;;4.80;99.90;;;;;;4984084;28;20294;-92
2021/12/07 12:19:06;;;;;;;;;;;4.80;99.90;;;;;;4981040;28;19926;-93
2021/12/07 12:21:37;;;;;;;;;;;4.80;99.90;;;;;;4980443;28;19929;-93
2021/12/07 12:24:18;;;;;;;;;;;4.80;99.90;;;;;;4980106;28;19930;-91
2021/12/07 12:26:49;;;;;;;;;;;4.80;99.90;;;;;;4980335;28;19965;-90
2021/12/07 12:29:16;;;;;;;;;;;4.80;99.90;;;;;;4980300;28;19932;-92
2021/12/07 12:31:46;;;;;;;;;;;4.90;99.90;;;;;;4979576;28;19973;-91
2021/12/07 12:34:37;;;;;;;;;;;4.90;99.90;;;;;;4963834;28;19929;-90
2021/12/07 12:37:13;;;;;;;;;;;4.90;99.90;;;;;;4972911;28;19977;-91
2021/12/07 12:39:54;;;;;;;;;;;4.90;99.90;;;;;;4966417;28;19933;-91
2021/12/07 12:42:43;;;;;;;;;;;4.90;99.90;;;;;;4966848;28;20401;-92
2021/12/07 12:45:22;;;;;;;;;;;5.00;99.90;;;;;;4983141;28;19976;-90
2021/12/07 12:48:18;;;;;;;;;;;4.90;99.90;;;;;;4983033;28;20008;-90
2021/12/07 12:50:46;;;;;;;;;;;4.90;99.90;;;;;;4981587;28;19973;-90
2021/12/07 12:53:32;;;;;;;;;;;5.00;99.90;;;;;;4998470;28;19960;-90
2021/12/07 12:56:12;;;;;;;;;;;5.00;99.90;;;;;;4989934;28;19995;-89
2021/12/07 12:58:55;;;;;;;;;;;;;;;;;;;;;
2021/12/07 13:01:23;;;;;;;;;;;5.00;99.90;;;;;;4960659;28;19926;-89
2021/12/07 13:03:55;;;;;;;;;;;5.10;99.90;;;;;;4958600;28;19932;-89
2021/12/07 13:06:31;;;;;;;;;;;5.10;99.90;;;;;;4978612;28;19926;-89
2021/12/07 13:09:00;;;;;;;;;;;5.10;99.90;;;;;;4962458;28;19926;-89
2021/12/07 13:11:44;;;;;;;;;;;5.10;99.90;;;;;;4962859;28;20289;-89
2021/12/07 13:14:13;;;;;;;;;;;5.10;99.90;;;;;;4962095;28;19930;-89
2021/12/07 13:16:58;;;;;;;;;;;;;;;;;;;;;
2021/12/07 13:19:29;;;;;;;;;;;5.20;99.90;;;;;;4978340;28;20036;-89
2021/12/07 13:22:06;;;;;;;;;;;5.20;99.90;;;;;;4946729;28;19930;-90
2021/12/07 13:24:55;;;;;;;;;;;5.20;99.90;;;;;;4947283;28;19926;-90
2021/12/07 13:27:20;;;;;;;;;;;5.20;99.90;;;;;;4978901;28;19988;-89
2021/12/07 13:29:56;;;;;;;;;;;5.20;99.90;;;;;;4962245;28;20318;-90
2021/12/07 13:32:34;;;;;;;;;;;;;;;;;;;;;
2021/12/07 13:35:03;;;;;;;;;;;5.30;99.90;;;;;;4963787;28;19925;-90
2021/12/07 13:37:44;;;;;;;;;;;5.30;99.90;;;;;;4962760;28;20363;-90
2021/12/07 13:40:30;;;;;;;;;;;5.30;99.90;;;;;;4978004;28;19926;-89
2021/12/07 13:42:56;;;;;;;;;;;5.20;99.90;;;;;;4962091;28;19997;-89
2021/12/07 13:45:26;;;;;;;;;;;5.20;99.90;;;;;;4962373;28;20314;-90
2021/12/07 13:48:00;;;;;;;;;;;5.20;99.90;;;;;;4946668;28;20012;-90
2021/12/07 13:50:30;;;;;;;;;;;5.20;99.90;;;;;;4962791;28;20350;-90
2021/12/07 13:52:58;;;;;;;;;;;5.10;99.90;;;;;;4961778;28;19926;-90
2021/12/07 13:55:37;;;;;;;;;;;;;;;;;;;;;
2021/12/07 13:58:03;;;;;;;;;;;5.10;99.90;;;;;;4977887;28;19930;-89
2021/12/07 14:00:33;;;;;;;;;;;5.10;99.90;;;;;;4962088;28;20389;-90
2021/12/07 14:03:11;;;;;;;;;;;5.00;99.90;;;;;;4961592;28;19926;-89
2021/12/07 14:05:49;;;;;;;;;;;;;;;;;;;;;
2021/12/07 14:08:17;;;;;;;;;;;4.90;99.90;;;;;;4962881;28;19932;-90
2021/12/07 14:11:01;;;;;;;;;;;4.90;99.90;;;;;;4945879;28;19926;-89
2021/12/07 14:13:55;;;;;;;;;;;4.90;99.90;;;;;;4961921;28;19976;-90
2021/12/07 14:16:21;;;;;;;;;;;4.80;99.90;;;;;;4963059;28;20366;-90
2021/12/07 14:18:47;;;;;;;;;;;4.80;99.90;;;;;;4945903;28;19929;-90
2021/12/07 14:21:18;;;;;;;;;;;4.70;99.90;;;;;;4945329;28;19973;-89
2021/12/07 14:23:56;;;;;;;;;;;;;;;;;;;;;
2021/12/07 14:26:36;;;;;;;;;;;4.70;99.90;;;;;;4962143;28;19980;-89
2021/12/07 14:29:14;;;;;;;;;;;4.60;99.90;;;;;;4962000;28;19929;-90
2021/12/07 14:31:43;;;;;;;;;;;4.60;99.90;;;;;;4945083;28;19933;-90
2021/12/07 14:34:16;;;;;;;;;;;4.50;99.90;;;;;;4945845;28;19926;-90
2021/12/07 14:36:44;;;;;;;;;;;4.50;99.90;;;;;;4961994;28;19930;-90
2021/12/07 14:39:35;;;;;;;;;;;4.50;99.90;;;;;;4961059;28;19925;-90
2021/12/07 14:42:04;;;;;;;;;;;4.40;99.90;;;;;;4946616;28;19926;-89
2021/12/07 14:44:38;;;;;;;;;;;4.40;99.90;;;;;;4961969;28;20017;-89
2021/12/07 14:47:06;;;;;;;;;;;4.40;99.90;;;;;;4961422;28;20370;-92
2021/12/07 14:49:32;;;;;;;;;;;4.30;99.90;;;;;;4962017;28;19933;-91
2021/12/07 14:52:00;;;;;;;;;;;4.30;99.90;;;;;;4945614;28;19925;-95
2021/12/07 14:54:28;;;;;;;;;;;4.20;99.90;;;;;;4945580;28;20029;-93
2021/12/07 14:56:54;;;;;;;;;;;4.20;99.90;;;;;;4945940;28;20386;-92
2021/12/07 14:59:38;;;;;;;;;;;4.10;99.90;;;;;;4944952;28;19964;-90
2021/12/07 15:02:16;;;;;;;;;;;;;;;;;;;;;
2021/12/07 15:04:53;;;;;;;;;;;4.00;99.90;;;;;;4962780;28;20031;-92
2021/12/07 15:10:36;;;;;;;;;;;4.00;99.90;;;;;;4962431;28;19926;-90
2021/12/07 15:13:14;;;;;;;;;;;;;;;;;;;;;
2021/12/07 15:15:54;;;;;;;;;;;3.90;99.90;;;;;;4962304;28;19935;-91
2021/12/07 15:18:43;;;;;;;;;;;;;;;;;;;;;
2021/12/07 15:21:22;;;;;;;;;;;3.80;99.90;;;;;;4965030;28;20393;-88
2021/12/07 15:24:04;;;;;;;;;;;3.70;99.90;;;;;;4948565;28;19926;-88
2021/12/07 15:26:32;;;;;;;;;;;3.70;99.90;;;;;;4964374;28;19926;-88
2021/12/07 15:29:03;;;;;;;;;;;3.70;99.90;;;;;;4948857;28;19925;-88
2021/12/07 15:31:54;;;;;;;;;;;3.70;99.90;;;;;;4948299;28;19926;-88
2021/12/07 15:34:24;;;;;;;;;;;3.70;99.90;;;;;;4963623;28;19930;-88
2021/12/07 15:40:44;;;;;;;;;;;;;;;;;;;;;
2021/12/07 15:43:11;;;;;;;;;;;3.50;99.90;;;;;;4979394;28;20020;-89
2021/12/07 15:45:49;;;;;;;;;;;;;;;;;;;;;
2021/12/07 15:48:29;;;;;;;;;;;3.60;99.90;;;;;;4965626;28;20354;-89
2021/12/07 15:51:08;;;;;;;;;;;3.40;99.90;;;;;;4949671;28;19932;-89
2021/12/07 15:53:39;;;;;;;;;;;3.40;99.90;;;;;;4950036;28;20290;-90
2021/12/07 15:56:12;;;;;;;;;;;3.30;99.90;;;;;;4963904;28;20021;-87
2021/12/07 16:02:22;;;;;;;;;;;3.30;99.90;;;;;;4876114;28;20621;-89
2021/12/07 16:05:07;;;;;;;;;;;3.30;99.90;;;;;;4964298;28;19925;-88
2021/12/07 16:07:43;;;;;;;;;;;;;;;;;;;;;
2021/12/07 16:10:32;;;;;;;;;;;3.30;99.90;;;;;;4964877;28;19932;-89
2021/12/07 16:13:23;;;;;;;;;;;3.30;99.90;;;;;;4962891;28;19973;-89
2021/12/07 16:15:54;;;;;;;;;;;3.30;99.90;;;;;;4979615;28;19980;-90
2021/12/07 16:18:27;;;;;;;;;;;3.20;99.90;;;;;;4947502;28;19930;-89
2021/12/07 16:20:53;;;;;;;;;;;3.20;99.90;;;;;;4964466;28;19933;-88
2021/12/07 16:23:18;;;;;;;;;;;3.20;99.90;;;;;;4963378;28;19985;-90
2021/12/07 16:25:45;;;;;;;;;;;3.20;99.90;;;;;;4947197;28;19926;-88
2021/12/07 16:28:31;;;;;;;;;;;3.20;99.90;;;;;;4945877;28;20358;-89
2021/12/07 16:31:08;;;;;;;;;;;3.10;99.90;;;;;;4951752;28;19925;-90
2021/12/07 16:34:03;;;;;;;;;;;3.10;99.90;;;;;;4948822;28;20361;-89
2021/12/07 16:36:31;;;;;;;;;;;3.10;99.90;;;;;;4995403;28;19977;-88
2021/12/07 16:39:01;;;;;;;;;;;3.20;99.90;;;;;;4995701;28;20278;-88
2021/12/07 16:41:29;;;;;;;;;;;3.10;99.90;;;;;;4962735;28;19969;-89
2021/12/07 16:47:16;;;;;;;;;;;3.20;99.90;;;;;;4956062;28;19938;-89
2021/12/07 16:53:16;;;;;;;;;;;3.10;99.90;;;;;;4985536;28;20040;-88
2021/12/07 16:55:47;;;;;;;;;;;3.20;99.90;;;;;;4978633;28;19930;-89
2021/12/07 16:58:22;;;;;;;;;;;3.10;99.90;;;;;;4963093;28;19926;-88
2021/12/07 17:03:54;;;;;;;;;;;3.20;99.90;;;;;;4994887;28;19981;-89
2021/12/07 17:06:22;;;;;;;;;;;3.30;99.90;;;;;;4978505;28;19937;-89